KMER/MER METAR and TAF weather

Enter ICAO airport designator
Station Type Date Time Source
KMER METAR 2020/01/20 03:45 UTC NOAA

KMER 200345Z 00000KT 3SM OVC008 07/07 A3009 FG


Station Type Date Time Source
KMER Decoded METAR 2020/01/20 03:45 UTC NOAA

Merced / Castle Air Force Base, CA, United States (KMER) 37-22N 120-34W 60M
Jan 19, 2020 - 10:45 PM EST / 2020.01.20 0345 UTC
Wind: Calm:0
Visibility: 3 mile(s):0
Sky conditions: overcast
Temperature: 44 F (7 C)
Dew Point: 44 F (7 C)
Relative Humidity: 100%
Pressure (altimeter): 30.09 in. Hg (1018 hPa)
ob: KMER 200345Z 00000KT 3SM OVC008 07/07 A3009 FG
cycle: 4

Station Type Date Time Source
KMER TAF 2020/01/20 06:26 UTC NOAA

TAF KMER 200520Z 2006/2106 00000KT 3SM BR OVC008
FM201200 VRB03KT 2SM BR OVC003
FM201900 VRB03KT 4SM BR OVC005
FM202100 VRB04KT 6SM HZ SCT010 BKN150
FM210400 36003KT 4SM BR OVC100
AMD NOT SKED

Example: see airport list